This is the latest recevied weather packets stored in our database for station/object ON5MM-5. If no packets are shown the sender has not sent any weather packets the latest 10 day(s).
| Time | Temp. | Humidity | Pressure | Rain* | Wind** | Luminosity | Snow |
|---|---|---|---|---|---|---|---|
| 1777692903 | 11.67° C | 48% | 1021.4 hPa | 0 mm | 1.34 m/s, ° | - | - |
| 1777692602 | 10.56° C | 51% | 1021.4 hPa | 0 mm | 1.34 m/s, ° | - | - |
| 1777692302 | 10° C | 53% | 1021.3 hPa | 0 mm | 0 m/s | - | - |
| 1777692002 | 9.44° C | 54% | 1021.4 hPa | 0 mm | 0 m/s | - | - |
| 1777691701 | 8.89° C | 56% | 1021.4 hPa | 0 mm | 0 m/s | - | - |
| 1777691402 | 8.33° C | 57% | 1021.5 hPa | 0 mm | 0 m/s | - | - |
| 1777691102 | 8.33° C | 57% | 1021.5 hPa | 0 mm | 0 m/s | - | - |
| 1777690803 | 8.33° C | 58% | 1021.5 hPa | 0 mm | 0 m/s | - | - |
| 1777690502 | 8.33° C | 58% | 1021.4 hPa | 0 mm | 0 m/s | - | - |
| 1777690202 | 8.33° C | 59% | 1021.6 hPa | 0 mm | 0 m/s | - | - |
| 1777689902 | 8.33° C | 59% | 1021.6 hPa | 0 mm | 0 m/s | - | - |
| 1777689602 | 8.33° C | 57% | 1021.6 hPa | 0 mm | 0 m/s | - | - |
| 1777689302 | 8.33° C | 56% | 1021.7 hPa | 0 mm | 0 m/s | - | - |
| 1777689003 | 8.33° C | 56% | 1021.7 hPa | 0 mm | 0 m/s | - | - |
| 1777688702 | 8.33° C | 56% | 1021.7 hPa | 0 mm | 0 m/s | - | - |
| 1777674302 | 11.67° C | 43% | 1023.5 hPa | 0 mm | 0 m/s | - | - |
| 1777674003 | 11.67° C | 43% | 1023.5 hPa | 0 mm | 0 m/s | - | - |
| 1777673402 | 11.67° C | 44% | 1023.5 hPa | 0 mm | 0 m/s | - | - |
| 1777673103 | 11.11° C | 45% | 1023.4 hPa | 0 mm | 0 m/s | - | - |
| 1777671902 | 11.67° C | 44% | 1023.5 hPa | 0 mm | 0 m/s | - | - |
| 1777670702 | 12.78° C | 41% | 1023.5 hPa | 0 mm | 0 m/s | - | - |
| 1777670402 | 12.78° C | 40% | 1023.6 hPa | 0 mm | 0 m/s | - | - |
| 1777670102 | 12.78° C | 40% | 1023.6 hPa | 0 mm | 0 m/s | - | - |
| 1777668303 | 13.89° C | 37% | 1023.7 hPa | 0 mm | 0 m/s | - | - |
| 1777667703 | 14.44° C | 37% | 1023.6 hPa | 0 mm | 0 m/s | - | - |
* Rain latest hour (hover to see other rain measurements)
** Current wind speed in m/s (hover to see current wind gust speed)